Time;durP1;ratioP1;P1;durP2;ratioP2;P2;SDS_P1;SDS_P2;PMS_P1;PMS_P2;Temp;Humidity;BMP_temperature;BMP_pressure;BME280_temperature;BME280_humidity;BME280_pressure;Samples;Min_cycle;Max_cycle;Signal;HPM_P1;HPM_P2
2022/08/01 00:00:18;;;;;;;2.35;2.15;;;;;19.30;94349.00;;;;7395140;19;20135;-75
2022/08/01 00:02:46;;;;;;;3.05;2.50;;;;;19.30;94350.00;;;;7393261;19;20145;-74
2022/08/01 00:05:14;;;;;;;3.53;2.33;;;;;19.20;94350.00;;;;7395179;19;20162;-74
2022/08/01 00:08:01;;;;;;;2.97;2.40;;;;;19.10;94353.00;;;;7392452;19;20607;-74
2022/08/01 00:10:35;;;;;;;5.75;2.13;;;;;18.90;94351.00;;;;7394318;19;20147;-73
2022/08/01 00:13:09;;;;;;;2.35;2.15;;;;;18.80;94350.00;;;;7392478;19;20192;-74
2022/08/01 00:15:37;;;;;;;3.45;2.38;;;;;18.80;94349.00;;;;7394151;19;20133;-74
2022/08/01 00:18:05;;;;;;;5.85;2.45;;;;;19.00;94359.00;;;;7394395;19;20133;-74
2022/08/01 00:20:38;;;;;;;3.50;2.47;;;;;19.00;94360.00;;;;7394668;19;20506;-74
2022/08/01 00:23:06;;;;;;;3.10;2.58;;;;;18.80;94351.00;;;;7394576;19;20599;-74
2022/08/01 00:25:33;;;;;;;3.65;2.30;;;;;18.70;94352.00;;;;7391862;19;20144;-75
2022/08/01 00:28:08;;;;;;;3.80;2.40;;;;;18.70;94363.00;;;;7392778;19;20646;-75
2022/08/01 00:30:36;;;;;;;4.47;2.40;;;;;19.00;94363.00;;;;7395146;19;20144;-75
2022/08/01 00:33:04;;;;;;;3.05;2.40;;;;;18.90;94370.00;;;;7391821;19;20129;-74
2022/08/01 00:35:37;;;;;;;3.70;2.53;;;;;18.60;94359.00;;;;7391754;19;20595;-76
2022/08/01 00:38:05;;;;;;;4.28;2.50;;;;;18.70;94359.00;;;;7394325;19;20611;-74
2022/08/01 00:40:32;;;;;;;2.80;2.13;;;;;18.50;94366.00;;;;7394201;19;20125;-75
2022/08/01 00:43:06;;;;;;;3.20;2.20;;;;;18.30;94362.00;;;;7391690;19;20663;-74
2022/08/01 00:45:34;;;;;;;3.85;2.45;;;;;18.20;94358.00;;;;7392724;19;20136;-75
2022/08/01 00:48:02;;;;;;;2.40;2.20;;;;;18.20;94373.00;;;;7392964;19;20178;-75
2022/08/01 00:50:35;;;;;;;2.75;2.53;;;;;18.00;94366.00;;;;7392968;19;20152;-75
2022/08/01 00:53:03;;;;;;;2.53;2.33;;;;;18.00;94367.00;;;;7392696;19;20626;-74
2022/08/01 00:55:31;;;;;;;3.40;2.47;;;;;18.10;94366.00;;;;7390400;19;20625;-74
2022/08/01 00:58:06;;;;;;;2.83;2.30;;;;;18.10;94361.00;;;;7393433;19;20619;-75
2022/08/01 01:00:38;;;;;;;4.30;2.60;;;;;17.90;94361.00;;;;7394278;19;20152;-74
2022/08/01 01:03:21;;;;;;;4.90;2.50;;;;;18.10;94353.00;;;;7389679;19;20512;-72
2022/08/01 01:06:27;;;;;;;3.50;2.60;;;;;17.90;94355.00;;;;7391471;19;20742;-73
2022/08/01 01:09:26;;;;;;;2.40;2.20;;;;;17.90;94356.00;;;;7387341;19;20618;-73
2022/08/01 01:12:10;;;;;;;2.90;2.58;;;;;17.80;94353.00;;;;7391407;19;20512;-74
2022/08/01 01:15:06;;;;;;;3.13;2.80;;;;;17.80;94360.00;;;;7391873;19;20160;-73
2022/08/01 01:17:45;;;;;;;3.05;2.65;;;;;17.80;94360.00;;;;7389140;19;20129;-73
2022/08/01 01:20:24;;;;;;;3.38;2.70;;;;;17.70;94356.00;;;;7398421;19;20608;-73
2022/08/01 01:23:09;;;;;;;4.13;2.55;;;;;17.60;94359.00;;;;7401783;19;20152;-74
2022/08/01 01:25:55;;;;;;;4.72;2.80;;;;;17.80;94359.00;;;;7399131;19;20149;-72
2022/08/01 01:28:59;;;;;;;8.38;2.47;;;;;17.50;94362.00;;;;7398947;19;20614;-72
2022/08/01 01:31:50;;;;;;;2.90;2.60;;;;;17.60;94358.00;;;;7398594;19;20152;-72
2022/08/01 01:34:20;;;;;;;3.90;2.88;;;;;17.40;94350.00;;;;7397420;19;20875;-72
2022/08/01 01:36:57;;;;;;;2.58;2.30;;;;;17.30;94351.00;;;;7400359;19;20144;-71
2022/08/01 01:39:27;;;;;;;2.80;2.60;;;;;17.20;94363.00;;;;7398510;19;20552;-72
2022/08/01 01:41:55;;;;;;;3.22;2.75;;;;;17.10;94362.00;;;;7398501;19;20162;-72
2022/08/01 01:44:30;;;;;;;3.70;2.53;;;;;17.10;94356.00;;;;7399362;19;21090;-73
2022/08/01 01:47:02;;;;;;;2.83;2.63;;;;;17.00;94363.00;;;;7398369;19;20156;-71
2022/08/01 01:49:31;;;;;;;2.85;2.65;;;;;17.00;94360.00;;;;7397560;19;20220;-73
2022/08/01 01:52:08;;;;;;;3.50;2.72;;;;;17.10;94365.00;;;;7398032;19;20156;-74
2022/08/01 01:54:40;;;;;;;3.28;2.83;;;;;17.10;94372.00;;;;7398170;19;20153;-73
2022/08/01 01:57:16;;;;;;;2.83;2.45;;;;;17.00;94369.00;;;;7397000;19;20622;-73
2022/08/01 01:59:46;;;;;;;8.40;2.90;;;;;17.20;94368.00;;;;7396955;19;20500;-73
2022/08/01 02:02:15;;;;;;;3.72;2.63;;;;;17.10;94369.00;;;;7397272;19;20637;-73
2022/08/01 02:04:52;;;;;;;3.10;2.80;;;;;17.10;94363.00;;;;7399230;19;20141;-73
2022/08/01 02:07:30;;;;;;;3.83;2.90;;;;;17.20;94369.00;;;;7395759;19;20667;-73
2022/08/01 02:10:12;;;;;;;3.10;2.55;;;;;17.20;94372.00;;;;7397463;19;20619;-74
2022/08/01 02:12:45;;;;;;;3.50;2.65;;;;;17.10;94359.00;;;;7400490;19;20148;-73
2022/08/01 02:15:19;;;;;;;5.80;3.00;;;;;17.20;94361.00;;;;7394465;19;20117;-71
2022/08/01 02:17:50;;;;;;;3.90;2.90;;;;;17.40;94361.00;;;;7395632;19;20125;-73
2022/08/01 02:20:18;;;;;;;4.13;2.80;;;;;17.50;94354.00;;;;7399304;19;20215;-74
2022/08/01 02:23:00;;;;;;;2.90;2.58;;;;;17.40;94360.00;;;;7399852;19;20154;-72
2022/08/01 02:25:40;;;;;;;3.03;2.72;;;;;17.30;94365.00;;;;7395633;19;20144;-72
2022/08/01 02:29:01;;;;;;;5.00;2.63;;;;;17.10;94360.00;;;;7397566;19;20140;-72
2022/08/01 02:31:31;;;;;;;3.90;2.60;;;;;17.30;94363.00;;;;7394246;19;20159;-72
2022/08/01 02:34:09;;;;;;;4.63;2.67;;;;;17.30;94367.00;;;;7397904;19;20211;-73
2022/08/01 02:36:38;;;;;;;4.35;2.60;;;;;17.30;94367.00;;;;7399214;19;20148;-73
2022/08/01 02:39:11;;;;;;;3.30;3.00;;;;;17.20;94377.00;;;;7394461;19;20122;-73
2022/08/01 02:41:49;;;;;;;3.05;2.53;;;;;17.10;94367.00;;;;7396082;19;20462;-71
2022/08/01 02:44:27;;;;;;;4.97;2.90;;;;;17.10;94364.00;;;;7397352;19;20618;-74
2022/08/01 02:47:02;;;;;;;2.75;2.55;;;;;17.00;94362.00;;;;7395578;19;20520;-72
2022/08/01 02:49:52;;;;;;;2.88;2.40;;;;;16.90;94371.00;;;;7394188;19;20704;-73
2022/08/01 02:52:27;;;;;;;3.33;2.67;;;;;16.70;94363.00;;;;7396740;19;20502;-73
2022/08/01 02:54:56;;;;;;;3.92;2.95;;;;;17.10;94373.00;;;;7395927;19;20145;-72
2022/08/01 02:57:26;;;;;;;4.53;2.88;;;;;16.80;94367.00;;;;7396313;19;20497;-72
2022/08/01 03:00:18;;;;;;;4.40;2.67;;;;;16.90;94369.00;;;;7396494;19;20452;-73
2022/08/01 03:02:50;;;;;;;4.55;2.85;;;;;17.00;94358.00;;;;7396081;19;20149;-72
2022/08/01 03:05:26;;;;;;;2.80;2.50;;;;;16.80;94360.00;;;;7395156;19;20497;-73
2022/08/01 03:08:02;;;;;;;5.57;2.67;;;;;16.70;94364.00;;;;7397754;19;20149;-72
2022/08/01 03:10:48;;;;;;;4.20;2.88;;;;;16.50;94368.00;;;;7397667;19;20497;-73
2022/08/01 03:13:17;;;;;;;4.18;2.80;;;;;16.50;94370.00;;;;7394668;19;20504;-71
2022/08/01 03:15:53;;;;;;;3.20;2.90;;;;;16.50;94374.00;;;;7393441;19;20447;-73
2022/08/01 03:18:23;;;;;;;4.50;2.80;;;;;16.40;94371.00;;;;7395609;19;20153;-73
2022/08/01 03:20:54;;;;;;;2.95;2.55;;;;;16.60;94368.00;;;;7396085;19;20124;-72
2022/08/01 03:23:31;;;;;;;3.95;2.40;;;;;16.50;94370.00;;;;7394040;19;20132;-72
2022/08/01 03:26:05;;;;;;;2.97;2.65;;;;;16.40;94376.00;;;;7395559;19;20136;-73
2022/08/01 03:28:41;;;;;;;3.75;2.85;;;;;16.30;94367.00;;;;7397427;19;20148;-73
2022/08/01 03:31:10;;;;;;;3.28;2.72;;;;;16.10;94367.00;;;;7392595;19;20625;-70
2022/08/01 03:33:38;;;;;;;3.53;3.10;;;;;16.00;94373.00;;;;7394762;19;20208;-75
2022/08/01 03:36:12;;;;;;;6.38;2.78;;;;;16.00;94370.00;;;;7392922;19;20133;-73
2022/08/01 03:38:42;;;;;;;3.40;3.00;;;;;15.90;94378.00;;;;7395735;19;20152;-73
2022/08/01 03:41:14;;;;;;;2.88;2.35;;;;;15.80;94378.00;;;;7391943;19;20145;-73
2022/08/01 03:44:01;;;;;;;3.45;2.58;;;;;15.80;94376.00;;;;7395226;19;20614;-74
2022/08/01 03:46:47;;;;;;;3.20;2.50;;;;;15.80;94376.00;;;;7395089;19;20725;-71
2022/08/01 03:49:26;;;;;;;3.45;2.75;;;;;15.70;94369.00;;;;7391799;19;20583;-71
2022/08/01 03:51:56;;;;;;;4.72;2.72;;;;;15.70;94375.00;;;;7394085;19;20145;-74
2022/08/01 03:54:34;;;;;;;8.25;3.25;;;;;15.70;94369.00;;;;7396641;19;20882;-71
2022/08/01 03:57:03;;;;;;;9.90;3.08;;;;;15.70;94374.00;;;;7393874;19;20136;-71
2022/08/01 03:59:59;;;;;;;4.15;2.83;;;;;15.80;94367.00;;;;7393390;19;20137;-72
2022/08/01 04:02:28;;;;;;;3.63;2.80;;;;;15.80;94372.00;;;;7393255;19;20519;-71
2022/08/01 04:05:04;;;;;;;3.25;2.95;;;;;15.70;94370.00;;;;7392693;19;20145;-72
2022/08/01 04:07:40;;;;;;;10.20;2.97;;;;;15.70;94358.00;;;;7393387;19;20149;-72
2022/08/01 04:10:13;;;;;;;2.75;2.55;;;;;15.70;94367.00;;;;7393210;19;20132;-73
2022/08/01 04:12:41;;;;;;;3.38;2.92;;;;;15.70;94352.00;;;;7396700;19;20152;-72
2022/08/01 04:15:09;;;;;;;3.53;2.83;;;;;15.80;94356.00;;;;7391790;19;20147;-73
2022/08/01 04:17:43;;;;;;;3.10;2.80;;;;;15.70;94358.00;;;;7392784;19;20152;-72
2022/08/01 04:20:11;;;;;;;3.22;2.92;;;;;15.70;94359.00;;;;7391870;19;20222;-74
2022/08/01 04:22:39;;;;;;;2.83;2.63;;;;;15.60;94362.00;;;;7396902;19;20599;-73
2022/08/01 04:25:29;;;;;;;6.35;2.83;;;;;15.60;94365.00;;;;7391964;19;20132;-71
2022/08/01 04:27:58;;;;;;;3.35;2.70;;;;;15.60;94364.00;;;;7392514;19;20876;-71
2022/08/01 04:30:36;;;;;;;3.53;2.50;;;;;15.70;94372.00;;;;7394271;19;20172;-73
2022/08/01 04:33:06;;;;;;;3.22;2.72;;;;;15.60;94370.00;;;;7394381;19;20140;-72
2022/08/01 04:35:45;;;;;;;3.40;3.10;;;;;15.60;94375.00;;;;7391259;19;20148;-70
2022/08/01 04:38:33;;;;;;;4.65;2.80;;;;;15.70;94372.00;;;;7393501;19;20153;-73
2022/08/01 04:41:09;;;;;;;6.03;2.70;;;;;15.80;94373.00;;;;7384165;19;20610;-74
2022/08/01 04:43:38;;;;;;;4.28;2.45;;;;;15.90;94374.00;;;;7392787;19;20137;-71
2022/08/01 04:46:07;;;;;;;4.28;2.70;;;;;16.00;94373.00;;;;7393934;19;20468;-72
2022/08/01 04:48:44;;;;;;;4.05;2.80;;;;;16.20;94373.00;;;;7393069;19;20215;-72
2022/08/01 04:51:15;;;;;;;2.50;2.30;;;;;16.30;94375.00;;;;7389432;19;20148;-73
2022/08/01 04:53:51;;;;;;;4.97;2.50;;;;;16.30;94373.00;;;;7393181;19;20144;-71
2022/08/01 04:56:20;;;;;;;2.25;2.05;;;;;16.60;94366.00;;;;7386232;19;20133;-72
2022/08/01 04:59:39;;;;;;;2.53;2.22;;;;;16.80;94385.00;;;;7389401;19;20144;-72
2022/08/01 05:01:50;;;;;;;4.70;2.25;;;;;17.00;94358.00;;;;7392605;19;20180;-71
2022/08/01 05:04:18;;;;;;;2.28;2.08;;;;;17.20;94368.00;;;;7393295;19;20171;-73
2022/08/01 05:06:52;;;;;;;4.28;2.30;;;;;17.40;94365.00;;;;7393631;19;20164;-70
2022/08/01 05:09:33;;;;;;;2.20;2.08;;;;;17.60;94357.00;;;;7390336;19;20163;-72
2022/08/01 05:12:08;;;;;;;3.17;1.88;;;;;17.80;94359.00;;;;7391518;19;20149;-73
2022/08/01 05:14:36;;;;;;;3.08;2.20;;;;;18.00;94357.00;;;;7392780;19;20635;-73
2022/08/01 05:17:06;;;;;;;2.85;2.20;;;;;18.20;94361.00;;;;7391577;19;20139;-73
2022/08/01 05:19:42;;;;;;;5.22;1.88;;;;;18.50;94359.00;;;;7392274;19;20560;-72
2022/08/01 05:22:17;;;;;;;2.08;1.88;;;;;18.60;94360.00;;;;7390108;19;20212;-73
2022/08/01 05:24:52;;;;;;;2.78;1.85;;;;;18.70;94363.00;;;;7393174;19;20650;-73
2022/08/01 05:27:20;;;;;;;2.22;1.92;;;;;18.90;94358.00;;;;7392127;19;20611;-72
2022/08/01 05:29:48;;;;;;;2.38;1.80;;;;;19.10;94364.00;;;;7390100;19;20617;-73
2022/08/01 05:32:23;;;;;;;2.30;1.95;;;;;19.20;94358.00;;;;7393130;19;20449;-73
2022/08/01 05:34:50;;;;;;;2.22;1.70;;;;;19.40;94360.00;;;;7393040;19;20216;-72
2022/08/01 05:37:18;;;;;;;2.70;1.92;;;;;19.50;94355.00;;;;7391333;19;20470;-74
2022/08/01 05:39:51;;;;;;;2.22;1.73;;;;;19.60;94358.00;;;;7393288;19;20725;-73
2022/08/01 05:42:20;;;;;;;2.33;1.70;;;;;19.60;94357.00;;;;7391014;19;20765;-73
2022/08/01 05:44:47;;;;;;;3.25;1.80;;;;;19.80;94351.00;;;;7392330;19;20148;-72
2022/08/01 05:47:22;;;;;;;1.75;1.65;;;;;19.90;94355.00;;;;7391702;19;20148;-73
2022/08/01 05:49:49;;;;;;;3.05;1.75;;;;;20.00;94354.00;;;;7390091;19;20148;-73
2022/08/01 05:52:17;;;;;;;2.22;1.70;;;;;20.20;94349.00;;;;7389558;19;20136;-73
2022/08/01 05:54:50;;;;;;;3.50;1.50;;;;;20.20;94360.00;;;;7391405;19;20212;-73
2022/08/01 05:57:19;;;;;;;2.33;1.50;;;;;20.40;94360.00;;;;7392795;19;20149;-73
2022/08/01 05:59:46;;;;;;;2.80;1.60;;;;;20.80;94349.00;;;;7391746;19;20145;-73
2022/08/01 06:02:21;;;;;;;1.83;1.60;;;;;20.70;94349.00;;;;7389195;19;20189;-71
2022/08/01 06:04:49;;;;;;;4.35;1.80;;;;;20.90;94353.00;;;;7392148;19;20149;-72
2022/08/01 06:07:16;;;;;;;2.08;1.80;;;;;21.00;94349.00;;;;7399037;19;20223;-72
2022/08/01 06:09:57;;;;;;;1.73;1.60;;;;;21.00;94358.00;;;;7395491;19;20152;-73
2022/08/01 06:12:25;;;;;;;2.45;1.80;;;;;21.00;94355.00;;;;7399213;19;20603;-71
2022/08/01 06:15:03;;;;;;;1.92;1.70;;;;;21.10;94358.00;;;;7398048;19;20135;-73
2022/08/01 06:17:30;;;;;;;3.03;1.60;;;;;21.20;94358.00;;;;7397702;19;20128;-71
2022/08/01 06:19:59;;;;;;;1.83;1.50;;;;;21.20;94351.00;;;;7395214;19;20180;-73
2022/08/01 06:22:33;;;;;;;3.17;1.75;;;;;21.20;94355.00;;;;7395827;19;20140;-72
2022/08/01 06:25:00;;;;;;;2.13;1.67;;;;;21.40;94352.00;;;;7398055;19;20607;-73
2022/08/01 06:27:28;;;;;;;2.30;1.70;;;;;21.30;94355.00;;;;7397558;19;20150;-73
2022/08/01 06:30:04;;;;;;;3.85;1.88;;;;;21.50;94360.00;;;;7395403;19;20635;-73
2022/08/01 06:32:32;;;;;;;1.77;1.63;;;;;21.90;94358.00;;;;7396748;19;20516;-72
2022/08/01 06:35:01;;;;;;;2.70;1.60;;;;;22.30;94355.00;;;;7397572;19;20738;-75
2022/08/01 06:37:36;;;;;;;2.08;1.70;;;;;22.10;94363.00;;;;7398050;19;20133;-74
2022/08/01 06:40:09;;;;;;;2.20;1.65;;;;;22.30;94360.00;;;;7396536;19;20145;-73
2022/08/01 06:42:45;;;;;;;1.70;1.60;;;;;22.10;94372.00;;;;7397934;19;20144;-72
2022/08/01 06:45:14;;;;;;;1.90;1.50;;;;;22.30;94371.00;;;;7396987;19;20624;-73
2022/08/01 06:47:44;;;;;;;2.67;1.60;;;;;22.30;94361.00;;;;7398257;19;20135;-73
2022/08/01 06:50:19;;;;;;;2.15;1.77;;;;;22.50;94379.00;;;;7396730;19;20493;-73
2022/08/01 06:52:46;;;;;;;3.65;2.10;;;;;22.40;94376.00;;;;7395745;19;20152;-74
2022/08/01 06:55:14;;;;;;;2.45;2.17;;;;;22.10;94371.00;;;;7396099;19;20140;-73
2022/08/01 06:57:50;;;;;;;4.45;1.80;;;;;22.20;94371.00;;;;7395530;19;20147;-73
2022/08/01 07:00:22;;;;;;;2.53;2.00;;;;;22.20;94378.00;;;;7395168;19;20189;-74
2022/08/01 07:02:59;;;;;;;3.15;1.80;;;;;22.00;94390.00;;;;7394672;19;20172;-71
2022/08/01 07:05:27;;;;;;;2.03;1.83;;;;;22.10;94377.00;;;;7396795;19;20156;-72
2022/08/01 07:07:54;;;;;;;4.40;1.77;;;;;22.30;94375.00;;;;7395219;19;20190;-73
2022/08/01 07:10:35;;;;;;;1.90;1.70;;;;;22.20;94383.00;;;;7396498;19;20125;-72
2022/08/01 07:13:03;;;;;;;2.10;1.90;;;;;21.60;94382.00;;;;7397920;19;20180;-72
2022/08/01 07:15:37;;;;;;;2.13;1.92;;;;;21.60;94387.00;;;;7396420;19;20148;-73
2022/08/01 07:18:04;;;;;;;2.17;1.73;;;;;21.60;94388.00;;;;7395177;19;20233;-75
2022/08/01 07:20:32;;;;;;;4.38;2.00;;;;;21.50;94388.00;;;;7395882;19;20527;-73
2022/08/01 07:23:20;;;;;;;1.83;1.70;;;;;21.60;94393.00;;;;7395249;19;20173;-72
2022/08/01 07:25:56;;;;;;;2.42;1.95;;;;;21.30;94395.00;;;;7395643;19;20140;-72
2022/08/01 07:28:31;;;;;;;2.60;2.10;;;;;21.20;94385.00;;;;7395647;19;20559;-73
2022/08/01 07:30:59;;;;;;;2.47;2.28;;;;;21.60;94374.00;;;;7397341;19;20583;-71
2022/08/01 07:33:26;;;;;;;1.73;1.63;;;;;22.30;94383.00;;;;7395930;19;20157;-72
2022/08/01 07:36:16;;;;;;;2.08;1.88;;;;;22.60;94379.00;;;;7394914;19;20599;-73
2022/08/01 07:38:44;;;;;;;2.25;1.83;;;;;22.40;94384.00;;;;7394030;19;20161;-72
2022/08/01 07:41:19;;;;;;;4.45;1.90;;;;;22.40;94377.00;;;;7394536;19;20141;-73
2022/08/01 07:44:06;;;;;;;6.10;1.92;;;;;22.60;94369.00;;;;7394066;19;20145;-74
2022/08/01 07:46:41;;;;;;;3.95;2.70;;;;;23.20;94368.00;;;;7395769;19;20135;-71
2022/08/01 07:49:08;;;;;;;2.83;2.53;;;;;23.30;94364.00;;;;7392688;19;20145;-73
2022/08/01 07:51:36;;;;;;;3.10;2.67;;;;;23.60;94366.00;;;;7395013;19;20148;-73
2022/08/01 07:54:34;;;;;;;3.75;2.95;;;;;23.80;94376.00;;;;7392909;19;20152;-73
2022/08/01 07:57:02;;;;;;;3.55;2.95;;;;;23.60;94376.00;;;;7391585;19;20476;-72
2022/08/01 07:59:38;;;;;;;3.97;3.00;;;;;23.50;94380.00;;;;7393540;19;20223;-73
2022/08/01 08:02:05;;;;;;;4.75;3.35;;;;;23.10;94384.00;;;;7392185;19;20188;-71
2022/08/01 08:04:34;;;;;;;3.47;3.17;;;;;23.10;94360.00;;;;7395246;19;20152;-73
2022/08/01 08:07:15;;;;;;;3.80;3.47;;;;;23.40;94360.00;;;;7394998;19;20945;-72
2022/08/01 08:09:49;;;;;;;3.40;3.10;;;;;23.60;94366.00;;;;7391815;19;20148;-72
2022/08/01 08:12:29;;;;;;;5.43;3.50;;;;;24.20;94373.00;;;;7393952;19;20149;-72
2022/08/01 08:15:01;;;;;;;3.45;3.15;;;;;23.70;94360.00;;;;7397775;19;20639;-70
2022/08/01 08:17:35;;;;;;;3.35;2.90;;;;;23.80;94354.00;;;;7392750;19;20154;-71
2022/08/01 08:20:07;;;;;;;3.60;3.10;;;;;24.60;94355.00;;;;7393405;19;20147;-70
2022/08/01 08:22:42;;;;;;;4.03;3.05;;;;;24.30;94372.00;;;;7393270;19;20157;-70
2022/08/01 08:25:11;;;;;;;4.97;3.33;;;;;24.10;94355.00;;;;7391948;19;20153;-72
2022/08/01 08:27:39;;;;;;;3.40;3.10;;;;;23.60;94347.00;;;;7394475;19;20169;-71
2022/08/01 08:30:14;;;;;;;3.75;3.45;;;;;24.50;94353.00;;;;7391224;19;20149;-72
2022/08/01 08:32:42;;;;;;;4.00;3.13;;;;;24.30;94363.00;;;;7397077;19;20600;-70
2022/08/01 08:35:10;;;;;;;3.70;3.38;;;;;24.50;94341.00;;;;7395303;19;20208;-74
2022/08/01 08:38:04;;;;;;;3.75;2.90;;;;;24.90;94350.00;;;;7393467;19;20196;-73
2022/08/01 08:40:38;;;;;;;3.33;3.03;;;;;23.80;94357.00;;;;7393719;19;20128;-70
2022/08/01 08:43:12;;;;;;;3.92;3.00;;;;;23.70;94350.00;;;;7394499;19;20125;-69
2022/08/01 08:45:40;;;;;;;3.42;2.83;;;;;24.40;94339.00;;;;7393028;19;20630;-72
2022/08/01 08:48:27;;;;;;;3.88;2.75;;;;;24.60;94346.00;;;;7392422;19;20148;-73
2022/08/01 08:51:01;;;;;;;3.78;2.80;;;;;24.80;94337.00;;;;7393868;19;20152;-71
2022/08/01 08:53:31;;;;;;;3.55;2.75;;;;;25.30;94344.00;;;;7392193;19;20725;-72
2022/08/01 08:56:02;;;;;;;2.60;2.40;;;;;25.80;94347.00;;;;7390527;19;20658;-71
2022/08/01 08:58:39;;;;;;;3.13;2.85;;;;;25.20;94355.00;;;;7394042;19;20145;-73
2022/08/01 09:01:08;;;;;;;3.05;2.85;;;;;24.60;94365.00;;;;7393347;19;20599;-72
2022/08/01 09:03:36;;;;;;;3.38;2.85;;;;;24.50;94346.00;;;;7390976;19;20668;-73
2022/08/01 09:06:11;;;;;;;3.60;2.83;;;;;25.50;94342.00;;;;7391671;19;20124;-72
2022/08/01 09:08:45;;;;;;;3.00;2.70;;;;;25.70;94362.00;;;;7391900;19;20180;-74
2022/08/01 09:11:20;;;;;;;3.53;3.13;;;;;25.80;94343.00;;;;7392563;19;20212;-74
2022/08/01 09:14:23;;;;;;;4.53;3.10;;;;;26.00;94345.00;;;;7391969;19;20515;-74
2022/08/01 09:17:10;;;;;;;3.55;3.20;;;;;25.90;94354.00;;;;7384486;19;20971;-75
2022/08/01 09:19:43;;;;;;;3.20;2.67;;;;;26.70;94360.00;;;;7389510;19;20465;-73
2022/08/01 09:22:32;;;;;;;3.15;2.65;;;;;26.90;94359.00;;;;7389421;19;21018;-74
2022/08/01 09:25:09;;;;;;;3.08;2.40;;;;;26.90;94355.00;;;;7391346;19;20215;-74
2022/08/01 09:27:43;;;;;;;2.88;2.55;;;;;27.10;94359.00;;;;7392787;19;20169;-76
2022/08/01 09:30:16;;;;;;;2.63;2.20;;;;;25.90;94371.00;;;;7394191;19;20133;-75
2022/08/01 09:33:01;;;;;;;2.70;2.47;;;;;25.60;94359.00;;;;7390887;19;20144;-74
2022/08/01 09:35:38;;;;;;;2.90;2.60;;;;;26.30;94367.00;;;;7391928;19;20178;-72
2022/08/01 09:38:19;;;;;;;4.00;2.40;;;;;26.70;94370.00;;;;7392673;19;20168;-72
2022/08/01 09:40:55;;;;;;;3.78;2.42;;;;;26.70;94368.00;;;;7397052;19;20616;-74
2022/08/01 09:43:30;;;;;;;2.50;2.30;;;;;26.70;94371.00;;;;7398690;19;20145;-71
2022/08/01 09:46:03;;;;;;;3.67;2.92;;;;;25.80;94383.00;;;;7398038;19;20513;-72
2022/08/01 09:48:54;;;;;;;4.10;2.60;;;;;25.50;94384.00;;;;7399677;19;20132;-72
2022/08/01 09:51:39;;;;;;;2.95;2.67;;;;;26.00;94380.00;;;;7399141;19;20750;-72
2022/08/01 09:54:34;;;;;;;4.28;2.60;;;;;26.00;94381.00;;;;7398703;19;20485;-73
2022/08/01 09:57:29;;;;;;;5.20;2.45;;;;;26.20;94369.00;;;;7397285;19;20140;-74
2022/08/01 10:00:04;;;;;;;3.40;2.42;;;;;26.50;94377.00;;;;7396996;19;20490;-74
2022/08/01 10:02:39;;;;;;;6.38;2.55;;;;;25.70;94372.00;;;;7399775;19;21123;-74
2022/08/01 10:05:15;;;;;;;3.42;2.30;;;;;25.90;94375.00;;;;7398077;19;20611;-74
2022/08/01 10:08:01;;;;;;;5.00;2.20;;;;;26.10;94360.00;;;;7401190;19;20125;-74
2022/08/01 10:10:41;;;;;;;2.97;2.58;;;;;26.50;94355.00;;;;7394771;19;20754;-75
2022/08/01 10:13:12;;;;;;;3.10;2.88;;;;;27.00;94347.00;;;;7398341;19;20124;-74
2022/08/01 10:15:50;;;;;;;2.38;2.17;;;;;27.30;94347.00;;;;7398662;19;20592;-73
2022/08/01 10:18:18;;;;;;;2.78;2.58;;;;;28.00;94370.00;;;;7398906;19;20132;-72
2022/08/01 10:20:54;;;;;;;2.38;2.17;;;;;26.30;94384.00;;;;7399264;19;20615;-73
2022/08/01 10:23:32;;;;;;;3.03;2.40;;;;;25.60;94384.00;;;;7397385;19;20603;-73
2022/08/01 10:26:10;;;;;;;3.85;2.20;;;;;25.30;94367.00;;;;7394326;19;20144;-73
2022/08/01 10:28:47;;;;;;;3.00;2.40;;;;;26.60;94356.00;;;;7397105;19;20941;-74
2022/08/01 10:31:17;;;;;;;2.67;2.47;;;;;26.80;94355.00;;;;7400064;19;20603;-73
2022/08/01 10:33:59;;;;;;;3.28;2.95;;;;;27.30;94350.00;;;;7397053;19;20192;-72
2022/08/01 10:36:27;;;;;;;4.07;3.00;;;;;27.30;94360.00;;;;7396234;19;20145;-73
2022/08/01 10:39:08;;;;;;;3.45;2.67;;;;;27.40;94340.00;;;;7394724;19;20623;-73
2022/08/01 10:41:36;;;;;;;2.70;2.50;;;;;27.30;94340.00;;;;7397854;19;20125;-73
2022/08/01 10:44:10;;;;;;;3.70;2.95;;;;;26.90;94360.00;;;;7397718;19;20132;-73
2022/08/01 10:46:39;;;;;;;3.70;2.58;;;;;27.10;94372.00;;;;7395588;19;20608;-71
2022/08/01 10:49:15;;;;;;;3.20;2.80;;;;;26.80;94350.00;;;;7396057;19;20143;-73
2022/08/01 10:51:50;;;;;;;3.47;3.17;;;;;27.70;94356.00;;;;7396898;19;20587;-73
2022/08/01 10:54:25;;;;;;;3.92;2.78;;;;;27.70;94339.00;;;;7395579;19;20148;-70
2022/08/01 10:57:01;;;;;;;3.13;2.78;;;;;27.40;94352.00;;;;7393842;19;20172;-70
2022/08/01 10:59:30;;;;;;;3.30;3.00;;;;;27.60;94342.00;;;;7397647;19;20133;-70
2022/08/01 11:02:30;;;;;;;3.08;2.88;;;;;28.50;94338.00;;;;7393664;19;20611;-69
2022/08/01 11:05:09;;;;;;;3.55;2.72;;;;;28.00;94359.00;;;;7399958;19;20145;-72
2022/08/01 11:07:48;;;;;;;2.85;2.60;;;;;27.10;94358.00;;;;7397096;19;20480;-71
2022/08/01 11:10:49;;;;;;;3.17;2.60;;;;;26.30;94356.00;;;;7392645;19;20163;-72
2022/08/01 11:13:57;;;;;;;2.63;2.42;;;;;27.00;94343.00;;;;7396530;19;20477;-71
2022/08/01 11:16:34;;;;;;;2.63;2.42;;;;;27.90;94332.00;;;;7395934;19;20145;-70
2022/08/01 11:19:04;;;;;;;2.67;2.47;;;;;28.60;94335.00;;;;7393430;19;20208;-73
2022/08/01 11:21:56;;;;;;;3.13;2.58;;;;;28.60;94323.00;;;;7396700;19;20613;-72
2022/08/01 11:24:46;;;;;;;2.95;2.45;;;;;28.80;94323.00;;;;7394413;19;20148;-72
2022/08/01 11:27:29;;;;;;;4.32;2.20;;;;;28.70;94347.00;;;;7390623;19;20140;-71
2022/08/01 11:30:09;;;;;;;2.92;2.50;;;;;28.10;94336.00;;;;7394857;19;20140;-70
2022/08/01 11:32:49;;;;;;;3.65;2.92;;;;;28.40;94345.00;;;;7397366;19;20181;-70
2022/08/01 11:35:38;;;;;;;3.22;2.65;;;;;28.40;94341.00;;;;7396676;19;20619;-71
2022/08/01 11:38:30;;;;;;;2.92;2.55;;;;;28.60;94325.00;;;;7392254;19;20615;-71
2022/08/01 11:41:22;;;;;;;3.00;2.30;;;;;28.00;94324.00;;;;7397610;19;20140;-71
2022/08/01 11:44:08;;;;;;;2.97;2.67;;;;;28.00;94337.00;;;;7396871;19;20144;-71
2022/08/01 11:47:09;;;;;;;2.47;2.28;;;;;28.10;94326.00;;;;7397402;19;20599;-69
2022/08/01 11:49:54;;;;;;;4.45;1.80;;;;;28.80;94308.00;;;;7396010;19;20622;-73
2022/08/01 11:52:35;;;;;;;2.55;2.33;;;;;29.50;94314.00;;;;7395090;19;20599;-70
2022/08/01 11:55:10;;;;;;;2.35;2.15;;;;;29.30;94311.00;;;;7394131;19;20148;-70
2022/08/01 11:57:42;;;;;;;2.72;2.30;;;;;29.60;94302.00;;;;7393705;19;20547;-71
2022/08/01 12:00:18;;;;;;;2.30;2.10;;;;;28.60;94324.00;;;;7392267;19;20491;-72
2022/08/01 12:02:55;;;;;;;2.45;2.25;;;;;27.50;94328.00;;;;7392365;19;20200;-71
2022/08/01 12:05:33;;;;;;;3.35;2.47;;;;;27.30;94311.00;;;;7393914;19;20137;-69
2022/08/01 12:08:01;;;;;;;2.53;2.33;;;;;27.70;94296.00;;;;7392080;19;20141;-71
2022/08/01 12:10:37;;;;;;;2.65;2.45;;;;;28.20;94308.00;;;;7391546;19;20172;-70
2022/08/01 12:13:22;;;;;;;3.45;2.58;;;;;28.30;94305.00;;;;7394033;19;20156;-73
2022/08/01 12:15:50;;;;;;;4.75;2.22;;;;;28.70;94293.00;;;;7392455;19;20510;-72
2022/08/01 12:18:24;;;;;;;2.83;2.40;;;;;28.80;94317.00;;;;7390840;19;20172;-70
2022/08/01 12:21:01;;;;;;;2.45;2.25;;;;;28.30;94321.00;;;;7394213;19;20162;-71
2022/08/01 12:30:43;;;;;;;3.13;2.80;;;;;28.70;94309.00;;;;7378334;19;20208;-72
2022/08/01 12:33:21;;;;;;;3.95;2.33;;;;;28.60;94301.00;;;;7394437;19;20587;-71
2022/08/01 12:35:52;;;;;;;2.65;2.28;;;;;28.30;94296.00;;;;7393004;19;20599;-71
2022/08/01 12:38:29;;;;;;;2.65;2.45;;;;;28.50;94293.00;;;;7389639;19;20148;-72
2022/08/01 12:40:57;;;;;;;3.70;2.78;;;;;29.00;94296.00;;;;7391442;19;20153;-71
2022/08/01 12:43:25;;;;;;;4.63;2.15;;;;;28.80;94309.00;;;;7394647;19;20169;-73
2022/08/01 12:46:01;;;;;;;4.22;2.70;;;;;28.50;94293.00;;;;7389256;19;20136;-73
2022/08/01 12:48:31;;;;;;;3.00;2.72;;;;;29.00;94282.00;;;;7389469;19;20151;-74
2022/08/01 12:51:09;;;;;;;3.58;2.40;;;;;29.10;94289.00;;;;7393496;19;20233;-73
2022/08/01 12:53:37;;;;;;;2.80;2.60;;;;;28.70;94287.00;;;;7395465;19;20145;-69
2022/08/01 12:56:10;;;;;;;2.70;2.50;;;;;29.10;94285.00;;;;7392926;19;20161;-74
2022/08/01 12:58:46;;;;;;;3.33;2.55;;;;;29.50;94280.00;;;;7388115;19;20241;-70
2022/08/01 13:01:13;;;;;;;3.45;2.30;;;;;29.20;94302.00;;;;7392004;19;20156;-74
2022/08/01 13:03:59;;;;;;;3.72;2.40;;;;;28.10;94303.00;;;;7394192;19;20136;-70
2022/08/01 13:06:39;;;;;;;2.65;2.20;;;;;27.80;94307.00;;;;7390661;19;20484;-72